createdAt,value
2018-07-07T00:00:06.969Z,14.75
2018-07-07T00:01:06.508Z,14.75
2018-07-07T00:02:06.251Z,14.75
2018-07-07T00:03:06.257Z,14.75
2018-07-07T00:04:06.105Z,14.69
2018-07-07T00:05:05.380Z,14.69
2018-07-07T00:06:05.688Z,14.69
2018-07-07T00:07:06.160Z,14.62
2018-07-07T00:08:11.458Z,14.62
2018-07-07T00:09:05.989Z,14.62
2018-07-07T00:10:05.371Z,14.56
2018-07-07T00:11:10.807Z,14.56
2018-07-07T00:12:06.007Z,14.56
2018-07-07T00:13:06.232Z,14.56
2018-07-07T00:14:05.937Z,14.50
2018-07-07T00:15:05.541Z,14.50
2018-07-07T00:16:05.856Z,14.50
2018-07-07T00:17:06.039Z,14.50
2018-07-07T00:18:06.171Z,14.44
2018-07-07T00:19:06.005Z,14.44
2018-07-07T00:20:06.416Z,14.44
2018-07-07T00:21:10.852Z,14.44
2018-07-07T00:22:06.433Z,14.38
2018-07-07T00:23:06.313Z,14.38
2018-07-07T00:24:06.560Z,14.38
2018-07-07T00:25:11.333Z,14.38
2018-07-07T00:26:05.757Z,14.31
2018-07-07T00:27:06.139Z,14.31
2018-07-07T00:28:06.176Z,14.31
2018-07-07T00:29:06.424Z,14.31
2018-07-07T00:30:06.069Z,14.31
2018-07-07T00:31:05.771Z,14.25
2018-07-07T00:32:06.344Z,14.25
2018-07-07T00:33:05.452Z,14.25
2018-07-07T00:34:06.376Z,14.25
2018-07-07T00:35:05.765Z,14.19
2018-07-07T00:36:05.489Z,14.19
2018-07-07T00:37:06.485Z,14.19
2018-07-07T00:38:05.711Z,14.19
2018-07-07T00:39:06.266Z,14.19
2018-07-07T00:40:05.526Z,14.12
2018-07-07T00:41:05.917Z,14.12
2018-07-07T00:42:06.248Z,14.12
2018-07-07T00:43:05.467Z,14.06
2018-07-07T00:44:07.046Z,14.06
2018-07-07T00:45:05.615Z,14.06
2018-07-07T00:46:06.167Z,14.06
2018-07-07T00:47:05.912Z,14.00
2018-07-07T00:48:06.198Z,14.00
2018-07-07T00:49:06.019Z,14.00
2018-07-07T00:50:05.847Z,13.94
2018-07-07T00:51:06.986Z,13.94
2018-07-07T00:52:05.794Z,13.88
2018-07-07T00:53:05.930Z,13.88
2018-07-07T00:54:05.836Z,13.88
2018-07-07T00:55:05.930Z,13.88
2018-07-07T00:56:06.492Z,13.81
2018-07-07T00:57:05.999Z,13.81
2018-07-07T00:58:06.252Z,13.81
2018-07-07T00:59:05.693Z,13.81
2018-07-07T01:00:05.533Z,13.81
2018-07-07T01:01:05.610Z,13.75
2018-07-07T01:02:05.537Z,13.75
2018-07-07T01:03:10.456Z,13.69
2018-07-07T01:04:05.986Z,13.69
2018-07-07T01:05:05.991Z,13.69
2018-07-07T01:06:05.445Z,13.69
2018-07-07T01:07:06.984Z,13.62
2018-07-07T01:08:06.425Z,13.62
2018-07-07T01:09:06.451Z,13.56
2018-07-07T01:10:05.773Z,13.62
2018-07-07T01:11:05.948Z,13.56
2018-07-07T01:12:05.852Z,13.56
2018-07-07T01:13:06.336Z,13.56
2018-07-07T01:14:06.257Z,13.56
2018-07-07T01:15:06.550Z,13.56
2018-07-07T01:16:06.056Z,13.56
2018-07-07T01:17:06.412Z,13.50
2018-07-07T01:18:06.428Z,13.50
2018-07-07T01:19:05.689Z,13.50
2018-07-07T01:20:06.145Z,13.50
2018-07-07T01:21:05.741Z,13.44
2018-07-07T01:22:05.763Z,13.44
2018-07-07T01:23:05.991Z,13.44
2018-07-07T01:24:06.140Z,13.44
2018-07-07T01:25:06.250Z,13.38
2018-07-07T01:26:10.965Z,13.38
2018-07-07T01:27:06.184Z,13.38
2018-07-07T01:28:05.717Z,13.31
2018-07-07T01:29:05.774Z,13.31
2018-07-07T01:30:06.232Z,13.25
2018-07-07T01:31:06.638Z,13.25
2018-07-07T01:32:06.261Z,13.25
2018-07-07T01:33:05.789Z,13.25
2018-07-07T01:34:06.290Z,13.19
2018-07-07T01:35:06.083Z,13.19
2018-07-07T01:36:11.035Z,13.19
2018-07-07T01:37:05.622Z,13.19
2018-07-07T01:38:06.326Z,13.19
2018-07-07T01:39:05.547Z,13.12
2018-07-07T01:40:05.610Z,13.12
2018-07-07T01:41:05.900Z,13.12
2018-07-07T01:42:05.884Z,13.12
2018-07-07T01:43:06.585Z,13.12
2018-07-07T01:44:10.881Z,13.06
2018-07-07T01:45:11.040Z,13.06
2018-07-07T01:46:05.687Z,13.06
2018-07-07T01:47:11.166Z,13.00
2018-07-07T01:48:05.555Z,13.00
2018-07-07T01:49:05.856Z,13.00
2018-07-07T01:50:06.097Z,13.00
2018-07-07T01:51:06.261Z,12.94
2018-07-07T01:52:06.332Z,12.94
2018-07-07T01:53:05.525Z,12.94
2018-07-07T01:54:06.105Z,12.88
2018-07-07T01:55:06.429Z,12.88
2018-07-07T01:56:05.851Z,12.88
2018-07-07T01:57:06.660Z,12.88
2018-07-07T01:58:05.764Z,12.88
2018-07-07T01:59:06.027Z,12.81
2018-07-07T02:00:05.884Z,12.81
2018-07-07T02:01:06.284Z,12.81
2018-07-07T02:02:07.543Z,12.81
2018-07-07T02:03:05.601Z,12.75
2018-07-07T02:04:06.181Z,12.75
2018-07-07T02:05:06.331Z,12.75
2018-07-07T02:06:05.804Z,12.75
2018-07-07T02:07:06.423Z,12.69
2018-07-07T02:08:10.484Z,12.69
2018-07-07T02:09:05.453Z,12.69
2018-07-07T02:10:06.258Z,12.62
2018-07-07T02:11:05.377Z,12.62
2018-07-07T02:12:06.188Z,12.62
2018-07-07T02:13:05.633Z,12.62
2018-07-07T02:14:06.332Z,12.62
2018-07-07T02:15:05.781Z,12.56
2018-07-07T02:16:06.494Z,12.56
2018-07-07T02:17:05.621Z,12.56
2018-07-07T02:18:05.958Z,12.50
2018-07-07T02:19:05.774Z,12.50
2018-07-07T02:20:06.418Z,12.50
2018-07-07T02:21:05.534Z,12.44
2018-07-07T02:22:05.692Z,12.44
2018-07-07T02:23:06.173Z,12.38
2018-07-07T02:24:06.335Z,12.38
2018-07-07T02:25:05.535Z,12.31
2018-07-07T02:26:05.810Z,12.31
2018-07-07T02:27:06.007Z,12.25
2018-07-07T02:28:06.020Z,12.25
2018-07-07T02:29:06.255Z,12.25
2018-07-07T02:30:05.455Z,12.25
2018-07-07T02:31:06.205Z,12.25
2018-07-07T02:32:06.201Z,12.19
2018-07-07T02:33:06.061Z,12.19
2018-07-07T02:34:06.017Z,12.19
2018-07-07T02:35:06.089Z,12.19
2018-07-07T02:36:06.765Z,12.12
2018-07-07T02:37:06.094Z,12.12
2018-07-07T02:38:05.784Z,12.12
2018-07-07T02:39:06.214Z,12.12
2018-07-07T02:40:06.099Z,12.06
2018-07-07T02:41:05.703Z,12.06
2018-07-07T02:42:06.572Z,12.06
2018-07-07T02:43:05.848Z,12.06
2018-07-07T02:44:05.909Z,12.00
2018-07-07T02:45:06.020Z,12.06
2018-07-07T02:46:06.111Z,12.00
2018-07-07T02:47:06.356Z,12.00
2018-07-07T02:48:06.051Z,12.00
2018-07-07T02:49:05.368Z,12.00
2018-07-07T02:50:05.918Z,12.00
2018-07-07T02:51:06.369Z,11.94
2018-07-07T02:52:11.287Z,11.94
2018-07-07T02:53:05.534Z,11.94
2018-07-07T02:54:05.855Z,11.94
2018-07-07T02:55:06.107Z,11.94
2018-07-07T02:56:06.411Z,11.88
2018-07-07T02:57:06.396Z,11.88
2018-07-07T02:58:05.407Z,11.81
2018-07-07T02:59:11.052Z,11.81
2018-07-07T03:00:05.536Z,11.81
2018-07-07T03:01:05.931Z,11.81
2018-07-07T03:02:06.006Z,11.81
2018-07-07T03:03:05.533Z,11.81
2018-07-07T03:04:05.959Z,11.75
2018-07-07T03:05:06.072Z,11.75
2018-07-07T03:06:10.811Z,11.75
2018-07-07T03:07:06.098Z,11.75
2018-07-07T03:08:06.548Z,11.75
2018-07-07T03:09:06.265Z,11.75
2018-07-07T03:10:06.411Z,11.69
2018-07-07T03:11:06.021Z,11.69
2018-07-07T03:12:05.940Z,11.69
2018-07-07T03:13:06.190Z,11.62
2018-07-07T03:14:06.270Z,11.62
2018-07-07T03:15:05.455Z,11.62
2018-07-07T03:16:05.695Z,11.62
2018-07-07T03:17:06.393Z,11.62
2018-07-07T03:18:06.191Z,11.56
2018-07-07T03:19:05.872Z,11.56
2018-07-07T03:20:06.343Z,11.56
2018-07-07T03:21:05.854Z,11.50
2018-07-07T03:22:10.562Z,11.56
2018-07-07T03:23:05.856Z,11.56
2018-07-07T03:24:06.254Z,11.56
2018-07-07T03:25:05.843Z,11.50
2018-07-07T03:26:05.536Z,11.50
2018-07-07T03:27:06.433Z,11.50
2018-07-07T03:28:06.341Z,11.50
2018-07-07T03:29:05.779Z,11.50
2018-07-07T03:30:05.684Z,11.50
2018-07-07T03:31:06.103Z,11.50
2018-07-07T03:32:06.475Z,11.50
2018-07-07T03:33:06.127Z,11.44
2018-07-07T03:34:05.460Z,11.44
2018-07-07T03:35:10.970Z,11.44
2018-07-07T03:36:05.622Z,11.44
2018-07-07T03:37:06.271Z,11.44
2018-07-07T03:38:05.857Z,11.44
2018-07-07T03:39:11.335Z,11.44
2018-07-07T03:40:05.643Z,11.44
2018-07-07T03:41:06.177Z,11.44
2018-07-07T03:42:05.742Z,11.44
2018-07-07T03:43:05.668Z,11.44
2018-07-07T03:44:06.431Z,11.44
2018-07-07T03:45:05.942Z,11.50
2018-07-07T03:46:06.520Z,11.50
2018-07-07T03:47:06.334Z,11.50
2018-07-07T03:48:10.412Z,11.50
2018-07-07T03:49:05.993Z,11.44
2018-07-07T03:50:05.927Z,11.50
2018-07-07T03:51:10.709Z,11.50
2018-07-07T03:52:05.738Z,11.56
2018-07-07T03:53:10.861Z,11.56
2018-07-07T03:54:11.064Z,11.56
2018-07-07T03:55:05.625Z,11.56
2018-07-07T03:56:05.586Z,11.62
2018-07-07T03:57:05.860Z,11.75
2018-07-07T03:58:06.101Z,11.88
2018-07-07T03:59:05.628Z,11.94
2018-07-07T04:00:05.888Z,12.06
2018-07-07T04:01:06.099Z,12.19
2018-07-07T04:02:06.256Z,12.31
2018-07-07T04:03:06.345Z,12.44
2018-07-07T04:04:05.776Z,12.56
2018-07-07T04:05:05.868Z,12.69
2018-07-07T04:06:05.378Z,12.81
2018-07-07T04:07:06.040Z,13.00
2018-07-07T04:08:06.334Z,13.12
2018-07-07T04:09:05.695Z,13.31
2018-07-07T04:10:06.258Z,13.44
2018-07-07T04:11:05.656Z,13.62
2018-07-07T04:12:06.178Z,13.81
2018-07-07T04:13:05.879Z,13.94
2018-07-07T04:14:06.167Z,14.12
2018-07-07T04:15:05.632Z,14.25
2018-07-07T04:16:05.776Z,14.44
2018-07-07T04:17:05.533Z,14.56
2018-07-07T04:18:05.868Z,14.75
2018-07-07T04:19:05.936Z,14.94
2018-07-07T04:20:06.160Z,15.06
2018-07-07T04:21:05.922Z,15.25
2018-07-07T04:22:06.255Z,15.44
2018-07-07T04:23:06.336Z,15.62
2018-07-07T04:24:05.626Z,15.75
2018-07-07T04:25:06.417Z,15.94
2018-07-07T04:26:05.938Z,16.06
2018-07-07T04:27:05.865Z,16.25
2018-07-07T04:28:06.118Z,16.44
2018-07-07T04:29:05.662Z,16.56
2018-07-07T04:30:06.755Z,16.75
2018-07-07T04:31:05.828Z,16.88
2018-07-07T04:32:06.522Z,17.06
2018-07-07T04:33:06.645Z,17.19
2018-07-07T04:34:06.257Z,17.31
2018-07-07T04:35:10.475Z,17.44
2018-07-07T04:36:10.569Z,17.50
2018-07-07T04:37:05.881Z,17.62
2018-07-07T04:38:10.777Z,17.69
2018-07-07T04:39:06.127Z,17.81
2018-07-07T04:40:06.294Z,17.88
2018-07-07T04:41:05.577Z,18.00
2018-07-07T04:42:06.638Z,18.19
2018-07-07T04:43:06.551Z,18.31
2018-07-07T04:44:06.243Z,18.56
2018-07-07T04:45:05.937Z,18.75
2018-07-07T04:46:06.352Z,18.94
2018-07-07T04:47:10.797Z,19.12
2018-07-07T04:48:06.216Z,19.31
2018-07-07T04:49:06.424Z,19.50
2018-07-07T04:50:06.176Z,19.69
2018-07-07T04:51:06.264Z,19.88
2018-07-07T04:52:05.716Z,20.06
2018-07-07T04:53:05.745Z,20.25
2018-07-07T04:54:05.895Z,20.31
2018-07-07T04:55:06.002Z,20.50
2018-07-07T04:56:05.644Z,20.69
2018-07-07T04:57:06.431Z,20.94
2018-07-07T04:58:10.975Z,20.94
2018-07-07T04:59:06.182Z,21.31
2018-07-07T05:00:06.104Z,21.56
2018-07-07T05:01:05.822Z,21.75
2018-07-07T05:02:05.621Z,22.00
2018-07-07T05:03:06.186Z,22.19
2018-07-07T05:04:05.860Z,22.38
2018-07-07T05:05:06.941Z,22.56
2018-07-07T05:06:05.694Z,22.75
2018-07-07T05:07:06.258Z,22.94
2018-07-07T05:08:11.046Z,23.06
2018-07-07T05:09:06.257Z,23.25
2018-07-07T05:10:05.725Z,23.38
2018-07-07T05:11:05.956Z,23.44
2018-07-07T05:12:06.099Z,23.56
2018-07-07T05:13:05.992Z,23.62
2018-07-07T05:14:10.735Z,23.75
2018-07-07T05:15:06.143Z,23.88
2018-07-07T05:16:06.243Z,24.06
2018-07-07T05:17:05.829Z,24.19
2018-07-07T05:18:06.139Z,24.38
2018-07-07T05:19:05.698Z,24.56
2018-07-07T05:20:06.539Z,24.62
2018-07-07T05:21:07.069Z,24.62
2018-07-07T05:22:05.783Z,24.62
2018-07-07T05:23:05.789Z,24.69
2018-07-07T05:24:05.375Z,24.81
2018-07-07T05:25:06.097Z,24.88
2018-07-07T05:26:06.230Z,25.00
2018-07-07T05:27:06.092Z,25.06
2018-07-07T05:28:06.029Z,25.25
2018-07-07T05:29:06.526Z,25.62
2018-07-07T05:30:05.870Z,25.88
2018-07-07T05:31:06.183Z,26.06
2018-07-07T05:32:06.078Z,26.31
2018-07-07T05:33:06.169Z,26.62
2018-07-07T05:34:07.214Z,27.12
2018-07-07T05:35:06.105Z,27.50
2018-07-07T05:36:06.274Z,27.81
2018-07-07T05:37:05.568Z,28.12
2018-07-07T05:38:06.361Z,28.50
2018-07-07T05:39:05.926Z,28.75
2018-07-07T05:40:06.113Z,29.00
2018-07-07T05:41:05.868Z,29.25
2018-07-07T05:42:06.171Z,29.50
2018-07-07T05:43:06.281Z,29.62
2018-07-07T05:44:06.251Z,29.88
2018-07-07T05:45:05.868Z,30.06
2018-07-07T05:46:06.390Z,30.25
2018-07-07T05:47:05.778Z,30.38
2018-07-07T05:48:10.443Z,30.50
2018-07-07T05:49:06.107Z,30.62
2018-07-07T05:50:05.930Z,30.69
2018-07-07T05:51:05.695Z,30.88
2018-07-07T05:52:05.623Z,30.94
2018-07-07T05:53:10.996Z,31.00
2018-07-07T05:54:05.554Z,31.06
2018-07-07T05:55:06.995Z,31.19
2018-07-07T05:56:05.696Z,31.25
2018-07-07T05:57:06.161Z,31.31
2018-07-07T05:58:05.990Z,31.31
2018-07-07T05:59:06.106Z,31.31
2018-07-07T06:00:05.937Z,31.38
2018-07-07T06:01:06.119Z,31.38
2018-07-07T06:02:06.352Z,31.38
2018-07-07T06:03:05.700Z,31.38
2018-07-07T06:04:11.107Z,31.31
2018-07-07T06:05:05.801Z,31.31
2018-07-07T06:06:05.464Z,31.19
2018-07-07T06:07:06.251Z,31.12
2018-07-07T06:08:06.337Z,31.06
2018-07-07T06:09:06.112Z,31.00
2018-07-07T06:10:06.265Z,30.88
2018-07-07T06:11:06.348Z,30.81
2018-07-07T06:12:10.978Z,30.69
2018-07-07T06:13:06.275Z,30.56
2018-07-07T06:14:06.605Z,30.50
2018-07-07T06:15:06.177Z,30.44
2018-07-07T06:16:05.878Z,30.31
2018-07-07T06:17:06.045Z,30.31
2018-07-07T06:18:05.867Z,30.31
2018-07-07T06:19:06.184Z,30.31
2018-07-07T06:20:06.345Z,30.38
2018-07-07T06:21:05.861Z,30.44
2018-07-07T06:22:06.172Z,30.50
2018-07-07T06:23:05.994Z,30.50
2018-07-07T06:24:11.303Z,30.56
2018-07-07T06:25:05.799Z,30.62
2018-07-07T06:26:05.706Z,30.62
2018-07-07T06:27:10.641Z,30.56
2018-07-07T06:28:05.865Z,30.62
2018-07-07T06:29:06.171Z,30.69
2018-07-07T06:30:06.031Z,30.62
2018-07-07T06:31:05.705Z,30.56
2018-07-07T06:32:06.148Z,30.56
2018-07-07T06:33:05.944Z,30.69
2018-07-07T06:34:06.716Z,30.69
2018-07-07T06:35:06.119Z,30.81
2018-07-07T06:36:06.400Z,30.81
2018-07-07T06:37:06.336Z,30.88
2018-07-07T06:38:06.755Z,30.94
2018-07-07T06:39:05.911Z,30.94
2018-07-07T06:40:06.113Z,31.00
2018-07-07T06:41:06.565Z,31.00
2018-07-07T06:42:11.260Z,31.06
2018-07-07T06:43:05.840Z,31.06
2018-07-07T06:44:11.468Z,31.19
2018-07-07T06:45:05.876Z,31.19
2018-07-07T06:46:05.871Z,31.25
2018-07-07T06:47:06.434Z,31.31
2018-07-07T06:48:06.110Z,31.38
2018-07-07T06:49:06.369Z,31.44
2018-07-07T06:50:06.101Z,31.44
2018-07-07T06:51:06.313Z,31.50
2018-07-07T06:52:06.509Z,31.56
2018-07-07T06:53:05.618Z,31.56
2018-07-07T06:54:06.491Z,31.56
2018-07-07T06:55:11.870Z,31.56
2018-07-07T06:56:05.846Z,31.62
2018-07-07T06:57:06.027Z,31.69
2018-07-07T06:58:06.037Z,31.62
2018-07-07T06:59:05.790Z,31.62
2018-07-07T07:00:06.434Z,31.69
2018-07-07T07:01:05.781Z,31.62
2018-07-07T07:02:05.463Z,31.62
2018-07-07T07:03:05.714Z,31.62
2018-07-07T07:04:05.952Z,31.62
2018-07-07T07:05:07.234Z,31.56
2018-07-07T07:06:06.185Z,31.44
2018-07-07T07:07:06.267Z,31.50
2018-07-07T07:08:05.623Z,31.50
2018-07-07T07:09:05.864Z,31.56
2018-07-07T07:10:05.712Z,31.56
2018-07-07T07:11:05.612Z,31.56
2018-07-07T07:12:10.500Z,31.62
2018-07-07T07:13:05.706Z,31.62
2018-07-07T07:14:05.799Z,31.69
2018-07-07T07:15:06.509Z,31.69
2018-07-07T07:16:05.915Z,31.62
2018-07-07T07:17:06.202Z,31.50
2018-07-07T07:18:05.543Z,31.50
2018-07-07T07:19:06.484Z,31.56
2018-07-07T07:20:05.823Z,31.50
2018-07-07T07:21:05.551Z,31.38
2018-07-07T07:22:05.959Z,31.38
2018-07-07T07:23:06.336Z,31.25
2018-07-07T07:24:06.115Z,31.25
2018-07-07T07:25:06.036Z,31.25
2018-07-07T07:26:06.309Z,31.19
2018-07-07T07:27:05.785Z,31.19
2018-07-07T07:28:05.748Z,31.19
2018-07-07T07:29:06.037Z,31.25
2018-07-07T07:30:06.015Z,31.31
2018-07-07T07:31:06.265Z,31.31
2018-07-07T07:32:05.806Z,31.38
2018-07-07T07:33:06.266Z,31.38
2018-07-07T07:34:10.862Z,31.31
2018-07-07T07:35:05.466Z,31.25
2018-07-07T07:36:05.789Z,31.19
2018-07-07T07:37:06.431Z,31.19
2018-07-07T07:38:06.030Z,31.12
2018-07-07T07:39:05.762Z,31.12
2018-07-07T07:40:05.954Z,31.06
2018-07-07T07:41:05.597Z,31.06
2018-07-07T07:42:06.339Z,31.00
2018-07-07T07:43:05.550Z,31.06
2018-07-07T07:44:06.110Z,31.00
2018-07-07T07:45:06.268Z,31.00
2018-07-07T07:46:05.738Z,31.00
2018-07-07T07:47:05.823Z,31.00
2018-07-07T07:48:11.430Z,31.00
2018-07-07T07:49:06.453Z,30.94
2018-07-07T07:50:06.260Z,31.00
2018-07-07T07:51:10.699Z,31.00
2018-07-07T07:52:06.180Z,30.94
2018-07-07T07:53:06.052Z,30.75
2018-07-07T07:54:05.561Z,30.81
2018-07-07T07:55:06.575Z,30.75
2018-07-07T07:56:05.786Z,30.69
2018-07-07T07:57:06.484Z,30.69
2018-07-07T07:58:05.853Z,30.62
2018-07-07T07:59:06.219Z,30.69
2018-07-07T08:00:05.792Z,30.62
2018-07-07T08:01:06.339Z,30.56
2018-07-07T08:02:05.617Z,30.56
2018-07-07T08:03:05.647Z,30.56
2018-07-07T08:04:05.688Z,30.56
2018-07-07T08:05:11.276Z,30.50
2018-07-07T08:06:05.712Z,30.50
2018-07-07T08:07:05.942Z,30.44
2018-07-07T08:08:06.025Z,30.44
2018-07-07T08:09:06.089Z,30.38
2018-07-07T08:10:06.457Z,30.38
2018-07-07T08:11:06.065Z,30.31
2018-07-07T08:12:05.691Z,30.25
2018-07-07T08:13:06.481Z,30.19
2018-07-07T08:14:06.506Z,30.19
2018-07-07T08:15:11.412Z,30.12
2018-07-07T08:16:05.930Z,30.00
2018-07-07T08:17:06.195Z,29.94
2018-07-07T08:18:06.154Z,29.88
2018-07-07T08:19:05.454Z,29.88
2018-07-07T08:20:06.322Z,29.75
2018-07-07T08:21:06.413Z,29.75
2018-07-07T08:22:05.705Z,29.75
2018-07-07T08:23:05.860Z,29.75
2018-07-07T08:24:05.698Z,29.69
2018-07-07T08:25:06.108Z,29.69
2018-07-07T08:26:06.456Z,29.69
2018-07-07T08:27:05.564Z,29.69
2018-07-07T08:28:05.978Z,29.62
2018-07-07T08:29:05.785Z,29.62
2018-07-07T08:30:05.541Z,29.56
2018-07-07T08:31:06.359Z,29.50
2018-07-07T08:32:06.016Z,29.50
2018-07-07T08:33:05.623Z,29.50
2018-07-07T08:34:05.785Z,29.38
2018-07-07T08:35:05.615Z,29.38
2018-07-07T08:36:06.267Z,29.25
2018-07-07T08:37:06.261Z,29.19
2018-07-07T08:38:06.014Z,29.19
2018-07-07T08:39:06.423Z,29.12
2018-07-07T08:40:06.287Z,29.06
2018-07-07T08:41:05.851Z,29.00
2018-07-07T08:42:06.428Z,29.00
2018-07-07T08:43:05.869Z,28.94
2018-07-07T08:44:05.879Z,28.88
2018-07-07T08:45:06.176Z,28.88
2018-07-07T08:46:05.794Z,28.88
2018-07-07T08:47:06.367Z,28.81
2018-07-07T08:48:05.450Z,28.88
2018-07-07T08:49:11.050Z,28.81
2018-07-07T08:50:05.784Z,28.81
2018-07-07T08:51:06.076Z,28.81
2018-07-07T08:52:05.792Z,28.81
2018-07-07T08:53:05.547Z,28.75
2018-07-07T08:54:06.256Z,28.75
2018-07-07T08:55:06.200Z,28.75
2018-07-07T08:56:06.174Z,28.69
2018-07-07T08:57:05.376Z,28.69
2018-07-07T08:58:06.424Z,28.56
2018-07-07T08:59:06.332Z,28.62
2018-07-07T09:00:05.801Z,28.62
2018-07-07T09:01:06.146Z,28.62
2018-07-07T09:02:05.954Z,28.62
2018-07-07T09:03:06.804Z,28.44
2018-07-07T09:04:06.251Z,28.44
2018-07-07T09:05:05.992Z,28.38
2018-07-07T09:06:06.503Z,28.25
2018-07-07T09:07:05.658Z,28.19
2018-07-07T09:08:05.461Z,28.12
2018-07-07T09:09:11.212Z,28.06
2018-07-07T09:10:05.874Z,28.00
2018-07-07T09:11:05.610Z,27.94
2018-07-07T09:12:06.196Z,27.94
2018-07-07T09:13:05.783Z,27.81
2018-07-07T09:14:06.415Z,27.75
2018-07-07T09:15:06.267Z,27.69
2018-07-07T09:16:06.736Z,27.62
2018-07-07T09:17:06.613Z,27.56
2018-07-07T09:18:05.698Z,27.50
2018-07-07T09:19:05.857Z,27.44
2018-07-07T09:20:05.785Z,27.38
2018-07-07T09:21:05.932Z,27.31
2018-07-07T09:22:05.991Z,27.25
2018-07-07T09:23:05.942Z,27.25
2018-07-07T09:24:06.264Z,27.19
2018-07-07T09:25:06.432Z,27.12
2018-07-07T09:26:06.250Z,27.12
2018-07-07T09:27:06.262Z,27.06
2018-07-07T09:28:06.423Z,27.06
2018-07-07T09:29:07.385Z,27.06
2018-07-07T09:30:06.171Z,26.94
2018-07-07T09:31:06.464Z,26.88
2018-07-07T09:32:06.143Z,26.81
2018-07-07T09:33:06.325Z,26.81
2018-07-07T09:34:06.148Z,26.75
2018-07-07T09:35:05.932Z,26.75
2018-07-07T09:36:06.334Z,26.69
2018-07-07T09:37:05.694Z,26.62
2018-07-07T09:38:06.169Z,26.56
2018-07-07T09:39:05.848Z,26.56
2018-07-07T09:40:05.849Z,26.50
2018-07-07T09:41:06.501Z,26.44
2018-07-07T09:42:10.770Z,26.38
2018-07-07T09:43:05.458Z,26.38
2018-07-07T09:44:06.328Z,26.31
2018-07-07T09:45:06.177Z,26.25
2018-07-07T09:46:05.699Z,26.19
2018-07-07T09:47:06.334Z,26.19
2018-07-07T09:48:10.698Z,26.19
2018-07-07T09:49:06.021Z,26.12
2018-07-07T09:50:06.255Z,26.06
2018-07-07T09:51:05.761Z,26.00
2018-07-07T09:52:06.408Z,25.94
2018-07-07T09:53:06.013Z,25.94
2018-07-07T09:54:07.477Z,25.94
2018-07-07T09:55:11.188Z,25.81
2018-07-07T09:56:06.478Z,25.81
2018-07-07T09:57:06.109Z,25.75
2018-07-07T09:58:10.549Z,25.75
2018-07-07T09:59:05.507Z,25.69
2018-07-07T10:00:06.108Z,25.69
2018-07-07T10:01:06.056Z,25.69
2018-07-07T10:02:06.318Z,25.69
2018-07-07T10:03:06.166Z,25.69
2018-07-07T10:04:06.182Z,25.69
2018-07-07T10:05:06.449Z,25.69
2018-07-07T10:06:05.792Z,25.62
2018-07-07T10:07:05.696Z,25.62
2018-07-07T10:08:06.155Z,25.69
2018-07-07T10:09:06.245Z,25.69
2018-07-07T10:10:06.013Z,25.69
2018-07-07T10:11:06.168Z,25.69
2018-07-07T10:12:05.375Z,25.62
2018-07-07T10:13:05.616Z,25.62
2018-07-07T10:14:05.935Z,25.62
2018-07-07T10:15:05.857Z,25.56
2018-07-07T10:16:06.090Z,25.56
2018-07-07T10:17:06.104Z,25.62
2018-07-07T10:18:05.906Z,25.62
2018-07-07T10:19:05.940Z,25.62
2018-07-07T10:20:05.464Z,25.69
2018-07-07T10:21:05.693Z,25.69
2018-07-07T10:22:11.110Z,25.62
2018-07-07T10:23:06.336Z,25.69
2018-07-07T10:24:05.687Z,25.69
2018-07-07T10:25:05.893Z,25.69
2018-07-07T10:26:06.386Z,25.75
2018-07-07T10:27:06.272Z,25.75
2018-07-07T10:28:06.359Z,25.69
2018-07-07T10:29:05.759Z,25.69
2018-07-07T10:30:05.451Z,25.69
2018-07-07T10:31:06.507Z,25.69
2018-07-07T10:32:06.340Z,25.69
2018-07-07T10:33:11.382Z,25.69
2018-07-07T10:34:05.693Z,25.75
2018-07-07T10:35:06.110Z,25.75
2018-07-07T10:36:05.936Z,25.75
2018-07-07T10:37:05.449Z,25.75
2018-07-07T10:38:06.351Z,25.81
2018-07-07T10:39:06.095Z,25.81
2018-07-07T10:40:06.390Z,25.81
2018-07-07T10:41:06.269Z,25.81
2018-07-07T10:42:05.751Z,25.81
2018-07-07T10:43:05.456Z,25.81
2018-07-07T10:44:05.940Z,25.88
2018-07-07T10:45:05.779Z,25.88
2018-07-07T10:46:06.356Z,25.88
2018-07-07T10:47:05.940Z,25.94
2018-07-07T10:48:10.948Z,26.00
2018-07-07T10:49:06.511Z,26.06
2018-07-07T10:50:06.536Z,26.06
2018-07-07T10:51:06.256Z,26.12
2018-07-07T10:52:05.699Z,26.12
2018-07-07T10:53:05.790Z,26.12
2018-07-07T10:54:05.696Z,26.12
2018-07-07T10:55:05.864Z,26.06
2018-07-07T10:56:06.668Z,26.06
2018-07-07T10:57:06.430Z,26.12
2018-07-07T10:58:05.538Z,26.12
2018-07-07T10:59:05.467Z,26.19
2018-07-07T11:00:06.500Z,26.19
2018-07-07T11:01:05.937Z,26.25
2018-07-07T11:02:05.869Z,26.31
2018-07-07T11:03:06.274Z,26.31
2018-07-07T11:04:05.701Z,26.38
2018-07-07T11:05:06.339Z,26.38
2018-07-07T11:06:06.330Z,26.44
2018-07-07T11:07:05.839Z,26.44
2018-07-07T11:08:05.447Z,26.50
2018-07-07T11:09:05.534Z,26.50
2018-07-07T11:10:11.365Z,26.56
2018-07-07T11:11:05.941Z,26.56
2018-07-07T11:12:06.898Z,26.62
2018-07-07T11:13:06.256Z,26.62
2018-07-07T11:14:06.257Z,26.62
2018-07-07T11:15:06.089Z,26.69
2018-07-07T11:16:06.695Z,26.69
2018-07-07T11:17:06.262Z,26.69
2018-07-07T11:18:05.609Z,26.75
2018-07-07T11:19:05.538Z,26.81
2018-07-07T11:20:10.483Z,26.81
2018-07-07T11:21:05.615Z,26.81
2018-07-07T11:22:05.852Z,26.81
2018-07-07T11:23:05.894Z,26.88
2018-07-07T11:24:05.467Z,26.88
2018-07-07T11:25:06.345Z,26.88
2018-07-07T11:26:05.962Z,26.94
2018-07-07T11:27:05.705Z,26.94
2018-07-07T11:28:06.188Z,26.94
2018-07-07T11:29:05.549Z,27.00
2018-07-07T11:30:05.698Z,27.00
2018-07-07T11:31:05.509Z,27.00
2018-07-07T11:32:06.337Z,27.00
2018-07-07T11:33:10.896Z,27.00
2018-07-07T11:34:05.594Z,27.00
2018-07-07T11:35:06.261Z,27.00
2018-07-07T11:36:05.698Z,26.94
2018-07-07T11:37:06.437Z,26.88
2018-07-07T11:38:05.711Z,26.94
2018-07-07T11:39:06.320Z,26.94
2018-07-07T11:40:05.867Z,26.94
2018-07-07T11:41:05.874Z,26.94
2018-07-07T11:42:10.899Z,26.94
2018-07-07T11:43:06.094Z,26.94
2018-07-07T11:44:05.705Z,27.00
2018-07-07T11:45:05.464Z,27.00
2018-07-07T11:46:06.432Z,27.00
2018-07-07T11:47:05.483Z,27.06
2018-07-07T11:48:10.508Z,27.06
2018-07-07T11:49:05.692Z,27.06
2018-07-07T11:50:05.896Z,27.12
2018-07-07T11:51:06.027Z,27.12
2018-07-07T11:52:05.464Z,27.19
2018-07-07T11:53:06.415Z,27.25
2018-07-07T11:54:06.181Z,27.25
2018-07-07T11:55:05.941Z,27.25
2018-07-07T11:56:11.387Z,27.25
2018-07-07T11:57:06.023Z,27.25
2018-07-07T11:58:06.581Z,27.25
2018-07-07T11:59:05.860Z,27.25
2018-07-07T12:00:06.106Z,27.25
2018-07-07T12:01:05.938Z,27.25
2018-07-07T12:02:05.621Z,27.19
2018-07-07T12:03:05.797Z,27.19
2018-07-07T12:04:05.891Z,27.19
2018-07-07T12:05:05.938Z,27.19
2018-07-07T12:06:11.476Z,27.19
2018-07-07T12:07:05.934Z,27.12
2018-07-07T12:08:13.874Z,27.12
2018-07-07T12:09:06.349Z,27.06
2018-07-07T12:10:06.269Z,27.12
2018-07-07T12:11:06.140Z,27.12
2018-07-07T12:12:11.134Z,27.12
2018-07-07T12:13:05.571Z,27.12
2018-07-07T12:14:06.527Z,27.12
2018-07-07T12:15:06.590Z,27.12
2018-07-07T12:16:06.182Z,27.12
2018-07-07T12:17:05.702Z,27.12
2018-07-07T12:18:06.015Z,27.19
2018-07-07T12:19:05.544Z,27.19
2018-07-07T12:20:06.307Z,27.25
2018-07-07T12:21:06.406Z,27.25
2018-07-07T12:22:05.889Z,27.25
2018-07-07T12:23:06.449Z,27.25
2018-07-07T12:24:06.111Z,27.25
2018-07-07T12:25:05.506Z,27.25
2018-07-07T12:26:06.737Z,27.25
2018-07-07T12:27:06.256Z,27.25
2018-07-07T12:28:06.059Z,27.25
2018-07-07T12:29:06.043Z,27.25
2018-07-07T12:30:06.335Z,27.25
2018-07-07T12:31:05.781Z,27.19
2018-07-07T12:32:06.423Z,27.12
2018-07-07T12:33:06.604Z,27.12
2018-07-07T12:34:05.942Z,27.06
2018-07-07T12:35:05.808Z,27.06
2018-07-07T12:36:06.173Z,27.06
2018-07-07T12:37:06.332Z,27.12
2018-07-07T12:38:05.923Z,27.12
2018-07-07T12:39:06.174Z,27.12
2018-07-07T12:40:06.340Z,27.12
2018-07-07T12:41:05.934Z,27.19
2018-07-07T12:42:05.845Z,27.19
2018-07-07T12:43:10.491Z,27.19
2018-07-07T12:44:06.139Z,27.19
2018-07-07T12:45:10.730Z,27.19
2018-07-07T12:46:06.336Z,27.19
2018-07-07T12:47:05.387Z,27.19
2018-07-07T12:48:11.047Z,27.19
2018-07-07T12:49:06.532Z,27.19
2018-07-07T12:50:06.020Z,27.19
2018-07-07T12:51:05.619Z,27.19
2018-07-07T12:52:06.421Z,27.19